Time;durP1;ratioP1;P1;durP2;ratioP2;P2;SDS_P1;SDS_P2;PMS_P1;PMS_P2;Temp;Humidity;BMP_temperature;BMP_pressure;BME280_temperature;BME280_humidity;BME280_pressure;Samples;Min_cycle;Max_cycle;Signal;HPM_P1;HPM_P2
2022/07/31 00:00:28;;;;;;;2.80;2.25;;;18.60;99.90;;;;;;6170736;23;20016;-79
2022/07/31 00:02:55;;;;;;;2.95;2.60;;;18.60;99.90;;;;;;6171234;23;20036;-77
2022/07/31 00:05:21;;;;;;;4.90;2.70;;;18.60;99.90;;;;;;6146722;23;20008;-78
2022/07/31 00:07:47;;;;;;;4.38;2.50;;;18.60;99.90;;;;;;6146740;23;20036;-80
2022/07/31 00:10:13;;;;;;;4.45;2.75;;;18.60;99.90;;;;;;6171215;23;20008;-80
2022/07/31 00:12:39;;;;;;;5.13;2.70;;;18.60;99.90;;;;;;6170507;23;20209;-77
2022/07/31 00:15:06;;;;;;;5.47;3.28;;;18.60;99.90;;;;;;6146558;23;20199;-79
2022/07/31 00:17:32;;;;;;;5.85;2.80;;;18.50;99.90;;;;;;6171500;23;20064;-78
2022/07/31 00:19:58;;;;;;;4.97;3.10;;;18.60;99.90;;;;;;6196152;23;20009;-78
2022/07/31 00:22:24;;;;;;;5.50;2.85;;;18.60;99.90;;;;;;6145433;23;20071;-77
2022/07/31 00:24:50;;;;;;;5.72;2.80;;;18.60;99.90;;;;;;6196276;23;20051;-77
2022/07/31 00:27:15;;;;;;;3.25;2.95;;;18.60;99.90;;;;;;6171438;23;20012;-78
2022/07/31 00:29:41;;;;;;;3.60;2.75;;;18.50;99.90;;;;;;6146528;23;20044;-77
2022/07/31 00:32:06;;;;;;;3.47;2.53;;;18.50;99.90;;;;;;6195793;23;20012;-79
2022/07/31 00:34:32;;;;;;;3.60;2.63;;;18.50;99.90;;;;;;6149228;23;20019;-78
2022/07/31 00:36:58;;;;;;;3.60;2.40;;;18.50;99.90;;;;;;6197733;23;20028;-80
2022/07/31 00:39:24;;;;;;;5.03;2.60;;;18.50;99.90;;;;;;6148187;23;20030;-79
2022/07/31 00:41:49;;;;;;;4.07;2.70;;;18.50;99.90;;;;;;6147776;23;20016;-77
2022/07/31 00:44:15;;;;;;;4.40;3.00;;;18.50;99.90;;;;;;6196001;23;20013;-77
2022/07/31 00:46:41;;;;;;;3.88;2.70;;;18.50;99.90;;;;;;6172799;23;20029;-77
2022/07/31 00:49:08;;;;;;;3.10;2.80;;;18.50;99.90;;;;;;6172800;23;20023;-79
2022/07/31 00:51:35;;;;;;;4.43;2.42;;;18.50;99.90;;;;;;6148228;23;20207;-79
2022/07/31 00:54:01;;;;;;;3.85;2.70;;;18.50;99.90;;;;;;6196511;23;20027;-79
2022/07/31 00:56:27;;;;;;;4.05;2.92;;;18.40;99.90;;;;;;6197674;23;20344;-77
2022/07/31 00:58:54;;;;;;;5.45;2.72;;;18.40;99.90;;;;;;6197292;23;20008;-77
2022/07/31 01:01:20;;;;;;;3.88;2.70;;;18.40;99.90;;;;;;6148035;23;20012;-79
2022/07/31 01:03:46;;;;;;;4.63;2.80;;;18.40;99.90;;;;;;6196900;23;20055;-77
2022/07/31 01:06:12;;;;;;;6.18;2.90;;;18.40;99.90;;;;;;6148738;23;20024;-78
2022/07/31 01:08:38;;;;;;;6.88;3.53;;;18.40;99.90;;;;;;6172483;23;20012;-77
2022/07/31 01:11:12;;;;;;;3.08;2.78;;;18.40;99.90;;;;;;6148457;23;20151;-77
2022/07/31 01:13:55;;;;;;;5.43;2.90;;;18.40;99.90;;;;;;6196371;23;20047;-77
2022/07/31 01:16:24;;;;;;;4.07;2.70;;;18.40;99.90;;;;;;6194978;23;20199;-77
2022/07/31 01:18:54;;;;;;;6.07;2.80;;;18.40;99.90;;;;;;6196590;23;20294;-76
2022/07/31 01:21:34;;;;;;;7.93;2.90;;;18.40;99.90;;;;;;6196009;23;20043;-78
2022/07/31 01:24:13;;;;;;;2.83;2.47;;;18.40;99.90;;;;;;6172218;23;20013;-77
2022/07/31 01:26:48;;;;;;;6.28;2.97;;;18.40;99.90;;;;;;6172912;23;20161;-80
2022/07/31 01:29:24;;;;;;;5.53;3.00;;;18.40;99.90;;;;;;6173418;23;20024;-78
2022/07/31 01:32:07;;;;;;;5.13;2.85;;;18.30;99.90;;;;;;6173066;23;20021;-79
2022/07/31 01:34:51;;;;;;;8.50;3.58;;;18.30;99.90;;;;;;6172543;23;20059;-78
2022/07/31 01:37:51;;;;;;;4.53;2.90;;;18.20;99.90;;;;;;6172767;23;20075;-81
2022/07/31 01:40:21;;;;;;;4.80;2.83;;;18.20;99.90;;;;;;6177959;23;20008;-80
2022/07/31 01:42:52;;;;;;;3.42;3.10;;;18.20;99.90;;;;;;6198005;23;20334;-79
2022/07/31 01:45:21;;;;;;;3.10;2.80;;;18.10;99.90;;;;;;6171384;23;20012;-79
2022/07/31 01:47:47;;;;;;;3.45;2.75;;;18.20;99.90;;;;;;6148740;23;20203;-79
2022/07/31 01:50:14;;;;;;;3.95;3.15;;;18.10;99.90;;;;;;6123332;23;20062;-80
2022/07/31 01:52:41;;;;;;;3.25;2.90;;;18.10;99.90;;;;;;6123025;23;20023;-78
2022/07/31 01:55:09;;;;;;;4.32;3.42;;;18.10;99.90;;;;;;6171842;23;20009;-80
2022/07/31 01:57:37;;;;;;;5.43;3.17;;;18.10;99.90;;;;;;6148215;23;20021;-79
2022/07/31 02:00:07;;;;;;;6.47;3.00;;;18.10;99.90;;;;;;6197693;23;20017;-79
2022/07/31 02:02:34;;;;;;;6.35;2.80;;;18.10;99.90;;;;;;6171798;23;20269;-80
2022/07/31 02:05:06;;;;;;;5.30;3.05;;;18.10;99.90;;;;;;6172741;23;20068;-79
2022/07/31 02:07:35;;;;;;;5.70;2.90;;;18.10;99.90;;;;;;6200495;23;20013;-78
2022/07/31 02:10:02;;;;;;;5.43;3.10;;;18.10;99.90;;;;;;6173523;23;20018;-77
2022/07/31 02:12:29;;;;;;;3.67;2.88;;;18.10;99.90;;;;;;6174144;23;20059;-78
2022/07/31 02:14:55;;;;;;;4.35;2.92;;;18.10;99.90;;;;;;6172668;23;20063;-79
2022/07/31 02:17:23;;;;;;;4.25;2.90;;;18.10;99.90;;;;;;6146494;23;20238;-79
2022/07/31 02:19:51;;;;;;;5.43;3.40;;;18.00;99.90;;;;;;6148365;23;20190;-79
2022/07/31 02:22:18;;;;;;;3.92;3.10;;;18.00;99.90;;;;;;6176190;23;20022;-80
2022/07/31 02:24:46;;;;;;;3.15;2.80;;;18.10;99.90;;;;;;6213100;23;20000;-79
2022/07/31 02:27:12;;;;;;;3.45;2.70;;;18.20;99.90;;;;;;6162939;23;20012;-79
2022/07/31 02:29:40;;;;;;;4.68;2.90;;;18.10;99.90;;;;;;6184751;23;20021;-78
2022/07/31 02:32:07;;;;;;;5.97;3.15;;;18.10;99.90;;;;;;6210276;23;20004;-80
2022/07/31 02:34:34;;;;;;;3.33;2.78;;;18.10;99.90;;;;;;6159960;23;20020;-79
2022/07/31 02:37:01;;;;;;;3.55;2.90;;;18.10;99.90;;;;;;6151883;23;20019;-80
2022/07/31 02:39:29;;;;;;;3.47;2.63;;;18.10;99.90;;;;;;6196810;23;20103;-80
2022/07/31 02:41:58;;;;;;;4.43;2.75;;;18.10;99.90;;;;;;6197509;23;20237;-81
2022/07/31 02:44:25;;;;;;;4.60;2.90;;;18.10;99.90;;;;;;6147582;23;20019;-79
2022/07/31 02:46:51;;;;;;;4.30;3.20;;;18.10;99.90;;;;;;6196441;23;20024;-78
2022/07/31 02:49:18;;;;;;;6.10;3.38;;;18.10;99.90;;;;;;6146481;23;20066;-81
2022/07/31 02:51:44;;;;;;;5.20;2.90;;;18.10;99.90;;;;;;6147633;23;20008;-78
2022/07/31 02:54:10;;;;;;;4.65;2.72;;;18.10;99.90;;;;;;6171563;23;20015;-78
2022/07/31 02:56:36;;;;;;;2.90;2.60;;;18.10;99.90;;;;;;6196456;23;20012;-79
2022/07/31 02:59:03;;;;;;;3.42;2.95;;;18.10;99.90;;;;;;6145623;23;20009;-80
2022/07/31 03:01:34;;;;;;;5.18;2.70;;;18.10;99.90;;;;;;6171117;23;20076;-79
2022/07/31 03:04:00;;;;;;;5.18;2.90;;;18.10;99.90;;;;;;6196698;23;20015;-79
2022/07/31 03:06:26;;;;;;;6.53;2.95;;;18.10;99.90;;;;;;6147785;23;20012;-79
2022/07/31 03:08:52;;;;;;;3.13;2.78;;;18.10;99.90;;;;;;6171366;23;20058;-76
2022/07/31 03:11:18;;;;;;;3.65;2.55;;;18.10;99.90;;;;;;6146459;23;20021;-78
2022/07/31 03:13:45;;;;;;;3.03;2.65;;;18.10;99.90;;;;;;6146596;23;20020;-78
2022/07/31 03:16:13;;;;;;;3.88;2.83;;;18.00;99.90;;;;;;6170933;23;20203;-77
2022/07/31 03:18:40;;;;;;;3.53;2.70;;;18.00;99.90;;;;;;6196112;23;20314;-78
2022/07/31 03:21:08;;;;;;;7.07;3.05;;;18.00;99.90;;;;;;6147151;23;20008;-78
2022/07/31 03:23:37;;;;;;;3.15;2.83;;;18.00;99.90;;;;;;6171107;23;20350;-79
2022/07/31 03:26:07;;;;;;;3.30;2.75;;;17.90;99.90;;;;;;6147717;23;20021;-77
2022/07/31 03:28:34;;;;;;;5.03;2.67;;;18.00;99.90;;;;;;6146576;23;20021;-79
2022/07/31 03:31:00;;;;;;;4.65;2.67;;;18.00;99.90;;;;;;6197667;23;20238;-78
2022/07/31 03:33:26;;;;;;;3.63;2.72;;;17.90;99.90;;;;;;6171141;23;20013;-80
2022/07/31 03:35:52;;;;;;;4.03;2.80;;;17.90;99.90;;;;;;6146454;23;20015;-79
2022/07/31 03:38:18;;;;;;;3.63;2.95;;;17.90;99.90;;;;;;6171029;23;20230;-78
2022/07/31 03:40:44;;;;;;;4.85;2.45;;;17.90;99.90;;;;;;6171123;23;20067;-79
2022/07/31 03:43:11;;;;;;;4.45;3.10;;;17.90;99.90;;;;;;6170176;23;20289;-77
2022/07/31 03:45:38;;;;;;;4.88;2.72;;;17.90;99.90;;;;;;6194752;23;20071;-79
2022/07/31 03:48:07;;;;;;;4.35;2.97;;;17.80;99.90;;;;;;6147264;23;20035;-78
2022/07/31 03:50:37;;;;;;;5.15;3.00;;;17.80;99.90;;;;;;6195695;23;20055;-78
2022/07/31 03:53:07;;;;;;;6.07;3.10;;;17.80;99.90;;;;;;6172294;23;20036;-79
2022/07/31 03:55:36;;;;;;;4.57;3.20;;;17.80;99.90;;;;;;6170878;23;20020;-78
2022/07/31 03:58:02;;;;;;;4.72;3.05;;;17.80;99.90;;;;;;6171974;23;20250;-80
2022/07/31 04:00:28;;;;;;;3.20;2.67;;;17.80;99.90;;;;;;6195688;23;20270;-82
2022/07/31 04:02:55;;;;;;;3.30;2.80;;;17.80;99.90;;;;;;6172295;23;20195;-80
2022/07/31 04:05:22;;;;;;;4.30;2.90;;;17.80;99.90;;;;;;6171610;23;20063;-80
2022/07/31 04:07:47;;;;;;;3.67;2.70;;;17.80;99.90;;;;;;6173782;23;20031;-80
2022/07/31 04:10:13;;;;;;;4.55;2.67;;;17.80;99.90;;;;;;6148904;23;20067;-80
2022/07/31 04:12:39;;;;;;;5.05;2.60;;;17.80;99.90;;;;;;6125021;23;20233;-81
2022/07/31 04:15:05;;;;;;;3.38;2.60;;;17.80;99.90;;;;;;6149310;23;20016;-79
2022/07/31 04:17:31;;;;;;;2.88;2.50;;;17.80;99.90;;;;;;6149018;23;20039;-81
2022/07/31 04:19:57;;;;;;;4.05;2.70;;;17.80;99.90;;;;;;6149244;23;20071;-80
2022/07/31 04:22:23;;;;;;;2.80;2.45;;;17.80;99.90;;;;;;6172122;23;20199;-81
2022/07/31 04:24:48;;;;;;;5.43;2.95;;;17.90;99.90;;;;;;6173260;23;20016;-80
2022/07/31 04:27:16;;;;;;;3.58;2.80;;;17.80;99.90;;;;;;6173246;23;20035;-80
2022/07/31 04:29:43;;;;;;;4.80;2.75;;;17.80;99.90;;;;;;6149672;23;20040;-78
2022/07/31 04:32:09;;;;;;;3.72;3.00;;;17.90;99.90;;;;;;6172334;23;20071;-78
2022/07/31 04:34:36;;;;;;;4.18;2.75;;;17.90;99.90;;;;;;6149033;23;20012;-80
2022/07/31 04:37:02;;;;;;;4.32;3.15;;;17.90;99.90;;;;;;6172374;23;20058;-78
2022/07/31 04:39:28;;;;;;;4.10;2.90;;;17.90;99.90;;;;;;6173277;23;20016;-77
2022/07/31 04:41:54;;;;;;;5.25;2.78;;;17.90;99.90;;;;;;6123390;23;20005;-78
2022/07/31 04:44:21;;;;;;;4.10;2.90;;;17.90;99.90;;;;;;6173115;23;20020;-79
2022/07/31 04:46:47;;;;;;;6.60;2.70;;;17.90;99.90;;;;;;6148403;23;20021;-78
2022/07/31 04:49:13;;;;;;;2.70;2.50;;;17.90;99.90;;;;;;6148099;23;20047;-78
2022/07/31 04:51:41;;;;;;;3.28;2.80;;;17.90;99.90;;;;;;6171513;23;20016;-79
2022/07/31 04:54:07;;;;;;;3.42;2.90;;;17.90;99.90;;;;;;6147684;23;20020;-79
2022/07/31 04:56:34;;;;;;;4.10;2.60;;;17.90;99.90;;;;;;6172577;23;20027;-78
2022/07/31 04:59:06;;;;;;;3.13;2.55;;;17.90;99.90;;;;;;6172937;23;20004;-80
2022/07/31 05:01:33;;;;;;;3.78;2.83;;;18.00;99.90;;;;;;6172786;23;20059;-79
2022/07/31 05:03:59;;;;;;;5.30;2.90;;;18.00;99.90;;;;;;6148247;23;20009;-79
2022/07/31 05:06:46;;;;;;;5.22;2.67;;;18.00;99.90;;;;;;6172337;23;20040;-78
2022/07/31 05:09:14;;;;;;;3.75;2.42;;;18.00;99.90;;;;;;6148487;23;20013;-79
2022/07/31 05:11:40;;;;;;;4.55;3.15;;;18.00;99.90;;;;;;6173383;23;20021;-79
2022/07/31 05:14:11;;;;;;;3.10;2.80;;;18.10;99.90;;;;;;6224364;23;20018;-80
2022/07/31 05:16:37;;;;;;;3.85;2.75;;;18.10;99.90;;;;;;6172839;23;20014;-79
2022/07/31 05:19:04;;;;;;;3.67;2.90;;;18.10;99.90;;;;;;6122909;23;20198;-78
2022/07/31 05:21:30;;;;;;;3.13;2.45;;;18.20;99.90;;;;;;6148208;23;20013;-77
2022/07/31 05:23:57;;;;;;;4.45;2.75;;;18.30;99.90;;;;;;6147712;23;20257;-78
2022/07/31 05:26:23;;;;;;;6.20;3.00;;;18.30;99.90;;;;;;6171715;23;20027;-78
2022/07/31 05:28:51;;;;;;;4.35;2.70;;;18.30;99.90;;;;;;6146999;23;20013;-79
2022/07/31 05:31:18;;;;;;;4.63;2.92;;;18.30;99.90;;;;;;6171915;23;20019;-79
2022/07/31 05:33:45;;;;;;;4.00;2.90;;;18.40;99.90;;;;;;6196338;23;20044;-77
2022/07/31 05:36:11;;;;;;;4.72;2.80;;;18.40;99.90;;;;;;6172276;23;20020;-79
2022/07/31 05:38:37;;;;;;;3.70;2.80;;;18.40;99.90;;;;;;6196568;23;20012;-77
2022/07/31 05:41:03;;;;;;;4.40;2.97;;;18.40;99.90;;;;;;6146013;23;20017;-77
2022/07/31 05:43:29;;;;;;;4.97;2.90;;;18.40;99.90;;;;;;6122367;23;20207;-79
2022/07/31 05:45:55;;;;;;;5.15;3.10;;;18.40;99.90;;;;;;6191667;23;20017;-77
2022/07/31 05:48:21;;;;;;;4.88;2.85;;;18.40;99.90;;;;;;6142133;23;20028;-78
2022/07/31 05:50:48;;;;;;;3.08;2.70;;;18.40;99.90;;;;;;6166074;23;20021;-80
2022/07/31 05:53:15;;;;;;;4.35;3.03;;;18.40;99.90;;;;;;6191684;23;20025;-78
2022/07/31 05:55:42;;;;;;;3.33;3.03;;;18.40;99.90;;;;;;6117899;23;20330;-80
2022/07/31 05:58:08;;;;;;;4.68;2.60;;;18.40;99.90;;;;;;6165410;23;20008;-79
2022/07/31 06:00:34;;;;;;;5.65;3.08;;;18.40;99.90;;;;;;6165463;23;20307;-78
2022/07/31 06:02:59;;;;;;;5.95;3.25;;;18.50;99.90;;;;;;6192680;23;20055;-76
2022/07/31 06:05:26;;;;;;;4.82;3.30;;;18.50;99.90;;;;;;6167433;23;20055;-78
2022/07/31 06:07:52;;;;;;;5.10;3.33;;;18.50;99.90;;;;;;6168411;23;20009;-79
2022/07/31 06:10:19;;;;;;;8.32;3.20;;;18.50;99.90;;;;;;6167631;23;20023;-80
2022/07/31 06:12:44;;;;;;;5.15;3.13;;;18.60;99.90;;;;;;6143978;23;20054;-78
2022/07/31 06:15:10;;;;;;;4.60;3.40;;;18.60;99.90;;;;;;6143263;23;20199;-79
2022/07/31 06:17:43;;;;;;;4.07;2.92;;;18.60;99.90;;;;;;6143314;23;20051;-78
2022/07/31 06:20:10;;;;;;;6.25;3.63;;;18.60;99.90;;;;;;6167403;23;20009;-77
2022/07/31 06:22:38;;;;;;;4.95;3.38;;;18.60;99.90;;;;;;6142386;23;20059;-77
2022/07/31 06:25:07;;;;;;;3.85;3.50;;;18.70;99.90;;;;;;6167927;23;20016;-78
2022/07/31 06:27:34;;;;;;;8.05;3.38;;;18.70;99.90;;;;;;6166818;23;20047;-78
2022/07/31 06:30:00;;;;;;;5.00;3.70;;;18.70;99.90;;;;;;6168049;23;20013;-76
2022/07/31 06:32:26;;;;;;;7.72;3.63;;;18.80;99.90;;;;;;6165901;23;20021;-77
2022/07/31 06:34:52;;;;;;;4.20;3.25;;;18.80;99.90;;;;;;6143138;23;20020;-78
2022/07/31 06:37:18;;;;;;;4.15;3.38;;;18.80;99.90;;;;;;6167076;23;20196;-78
2022/07/31 06:39:44;;;;;;;4.80;4.15;;;18.90;99.90;;;;;;6143034;23;20017;-79
2022/07/31 06:42:10;;;;;;;3.78;3.13;;;19.00;99.90;;;;;;6167008;23;20036;-78
2022/07/31 06:44:35;;;;;;;4.80;3.35;;;19.10;99.90;;;;;;6167377;23;20017;-78
2022/07/31 06:47:01;;;;;;;4.45;3.60;;;19.10;99.90;;;;;;6142954;23;20071;-79
2022/07/31 06:49:27;;;;;;;5.03;3.08;;;19.20;99.90;;;;;;6142392;23;20021;-76
2022/07/31 06:51:52;;;;;;;4.40;3.28;;;19.20;99.90;;;;;;6191640;23;20013;-78
2022/07/31 06:54:18;;;;;;;5.50;3.22;;;19.30;99.90;;;;;;6118827;23;20019;-78
2022/07/31 06:56:44;;;;;;;3.90;3.45;;;19.20;99.90;;;;;;6166097;23;20181;-78
2022/07/31 06:59:10;;;;;;;3.80;3.35;;;19.30;99.90;;;;;;6166156;23;20109;-78
2022/07/31 07:01:36;;;;;;;4.55;3.20;;;19.40;99.90;;;;;;6191387;23;20196;-79
2022/07/31 07:04:02;;;;;;;4.15;3.53;;;19.40;99.90;;;;;;6118059;23;20032;-79
2022/07/31 07:06:29;;;;;;;4.18;3.35;;;19.40;99.90;;;;;;6142267;23;20032;-81
2022/07/31 07:08:55;;;;;;;5.57;3.58;;;19.40;99.90;;;;;;6142993;23;20110;-81
2022/07/31 07:11:22;;;;;;;3.90;3.50;;;19.40;99.90;;;;;;6118795;23;20013;-82
2022/07/31 07:13:48;;;;;;;3.60;3.30;;;19.40;99.90;;;;;;6142618;23;20020;-80
2022/07/31 07:16:15;;;;;;;4.28;3.53;;;19.40;99.90;;;;;;6168682;23;20032;-82
2022/07/31 07:18:41;;;;;;;3.70;3.40;;;19.40;99.90;;;;;;6167272;23;20184;-81
2022/07/31 07:21:07;;;;;;;4.00;3.60;;;19.50;99.90;;;;;;6167742;23;20037;-81
2022/07/31 07:23:33;;;;;;;4.28;3.15;;;19.50;99.90;;;;;;6166348;23;20067;-80
2022/07/31 07:25:59;;;;;;;4.07;3.50;;;19.50;99.90;;;;;;6166699;23;20048;-80
2022/07/31 07:28:25;;;;;;;5.68;3.88;;;19.50;99.90;;;;;;6167272;23;20080;-81
2022/07/31 07:30:50;;;;;;;4.03;3.63;;;19.60;99.90;;;;;;6167567;23;20278;-81
2022/07/31 07:33:16;;;;;;;3.90;3.45;;;19.60;99.90;;;;;;6117103;23;20027;-77
2022/07/31 07:35:42;;;;;;;3.90;3.50;;;19.60;99.90;;;;;;6190048;23;20009;-78
2022/07/31 07:38:08;;;;;;;5.47;4.10;;;19.60;99.90;;;;;;6143488;23;20009;-80
2022/07/31 07:40:34;;;;;;;4.38;3.70;;;19.70;99.90;;;;;;6168427;23;20028;-81
2022/07/31 07:43:00;;;;;;;6.00;4.10;;;19.60;99.90;;;;;;6170171;23;20024;-81
2022/07/31 07:45:26;;;;;;;7.05;4.05;;;19.70;99.90;;;;;;6170097;23;20199;-81
2022/07/31 07:47:51;;;;;;;5.18;3.85;;;19.80;99.90;;;;;;6169495;23;20024;-79
2022/07/31 07:50:17;;;;;;;4.65;3.83;;;19.90;99.90;;;;;;6168661;23;20013;-80
2022/07/31 07:52:43;;;;;;;6.22;3.90;;;19.90;99.90;;;;;;6194562;23;20194;-79
2022/07/31 07:55:11;;;;;;;5.30;3.83;;;19.90;99.90;;;;;;6145673;23;20008;-80
2022/07/31 07:57:43;;;;;;;5.70;4.05;;;19.90;99.90;;;;;;6146114;23;20013;-79
2022/07/31 08:00:10;;;;;;;5.10;4.60;;;19.90;99.90;;;;;;6169443;23;20159;-79
2022/07/31 08:02:36;;;;;;;6.45;4.35;;;20.00;99.90;;;;;;6193186;23;20063;-78
2022/07/31 08:05:02;;;;;;;5.45;3.97;;;20.10;99.90;;;;;;6169357;23;20008;-78
2022/07/31 08:07:34;;;;;;;7.40;4.10;;;20.20;99.90;;;;;;6194060;23;20044;-78
2022/07/31 08:10:00;;;;;;;4.30;3.88;;;20.20;99.90;;;;;;6168854;23;20012;-78
2022/07/31 08:12:27;;;;;;;6.45;4.05;;;20.30;99.90;;;;;;6169702;23;20276;-77
2022/07/31 08:14:54;;;;;;;7.05;4.50;;;20.40;99.90;;;;;;6193821;23;20207;-78
2022/07/31 08:17:20;;;;;;;6.40;5.00;;;20.60;99.90;;;;;;6144308;23;20301;-78
2022/07/31 08:19:45;;;;;;;6.45;4.95;;;20.70;99.90;;;;;;6168466;23;20024;-79
2022/07/31 08:22:15;;;;;;;5.57;5.00;;;20.80;99.90;;;;;;6169395;23;20016;-78
2022/07/31 08:24:41;;;;;;;6.68;4.90;;;20.90;99.90;;;;;;6169415;23;20009;-80
2022/07/31 08:27:26;;;;;;;6.28;5.00;;;21.20;99.90;;;;;;6169693;23;20067;-79
2022/07/31 08:29:52;;;;;;;;;;;21.30;99.90;;;;;;6148973;23;20041;-80
2022/07/31 08:32:18;;;;;;;7.97;5.75;;;21.30;99.90;;;;;;6169720;23;20090;-79
2022/07/31 08:34:44;;;;;;;5.57;4.60;;;21.40;99.90;;;;;;6144808;23;20020;-79
2022/07/31 08:37:09;;;;;;;6.25;4.78;;;21.60;99.90;;;;;;6144206;23;20287;-79
2022/07/31 08:39:36;;;;;;;6.65;5.40;;;21.80;99.90;;;;;;6169403;23;20288;-79
2022/07/31 08:42:05;;;;;;;7.35;5.38;;;22.00;99.90;;;;;;6168512;23;20017;-79
2022/07/31 08:44:34;;;;;;;5.95;5.32;;;22.00;99.90;;;;;;6142550;23;20021;-80
2022/07/31 08:47:02;;;;;;;6.35;5.53;;;22.00;99.90;;;;;;6167858;23;20208;-80
2022/07/31 08:49:30;;;;;;;7.00;5.70;;;22.10;99.90;;;;;;6168118;23;20316;-78
2022/07/31 08:51:58;;;;;;;5.57;5.00;;;22.00;99.90;;;;;;6167738;23;20013;-79
2022/07/31 08:54:25;;;;;;;5.32;4.82;;;22.10;99.90;;;;;;6144010;23;20299;-79
2022/07/31 08:56:51;;;;;;;5.80;5.20;;;22.00;99.90;;;;;;6119302;23;20021;-79
2022/07/31 08:59:21;;;;;;;5.60;4.90;;;22.00;99.90;;;;;;6144156;23;20016;-79
2022/07/31 09:01:49;;;;;;;8.30;5.78;;;21.80;99.90;;;;;;6144308;23;20009;-79
2022/07/31 09:04:15;;;;;;;5.00;4.20;;;21.70;99.90;;;;;;6192732;23;20009;-79
2022/07/31 09:06:41;;;;;;;8.30;5.10;;;21.70;99.90;;;;;;6192235;23;20013;-80
2022/07/31 09:09:07;;;;;;;6.03;4.88;;;21.60;99.90;;;;;;6192229;23;20045;-79
2022/07/31 09:11:33;;;;;;;7.05;4.38;;;21.50;99.90;;;;;;6193048;23;20020;-79
2022/07/31 09:14:03;;;;;;;6.57;4.57;;;21.40;99.90;;;;;;6168077;23;20051;-79
2022/07/31 09:16:29;;;;;;;5.93;4.53;;;21.30;99.90;;;;;;6165955;23;20256;-78
2022/07/31 09:19:00;;;;;;;5.70;4.80;;;21.10;99.90;;;;;;6192117;23;20009;-80
2022/07/31 09:21:36;;;;;;;5.22;4.72;;;20.90;99.90;;;;;;6165030;23;20192;-80
2022/07/31 09:24:02;;;;;;;5.85;4.88;;;20.90;99.90;;;;;;6194226;23;20044;-80
2022/07/31 09:26:33;;;;;;;6.70;5.18;;;20.70;99.90;;;;;;6166991;23;20256;-79
2022/07/31 09:29:01;;;;;;;10.02;5.70;;;20.70;99.90;;;;;;6168837;23;20013;-79
2022/07/31 09:31:34;;;;;;;6.13;5.15;;;20.60;99.90;;;;;;6170803;23;20196;-77
2022/07/31 09:34:00;;;;;;;9.00;6.00;;;20.60;99.90;;;;;;6171627;23;20013;-78
2022/07/31 09:36:26;;;;;;;8.13;6.30;;;20.60;99.90;;;;;;6145948;23;20020;-80
2022/07/31 09:38:52;;;;;;;9.30;6.25;;;20.60;99.90;;;;;;6191419;23;20318;-81
2022/07/31 09:41:20;;;;;;;8.60;6.40;;;20.60;99.90;;;;;;6167532;23;20076;-79
2022/07/31 09:44:04;;;;;;;10.63;7.35;;;20.70;99.90;;;;;;6167975;23;20207;-78
2022/07/31 09:46:40;;;;;;;8.85;7.05;;;20.70;99.90;;;;;;6150115;23;20359;-77
2022/07/31 09:49:06;;;;;;;8.57;7.43;;;20.70;99.90;;;;;;6170672;23;20012;-79
2022/07/31 09:51:42;;;;;;;8.35;7.50;;;20.70;99.90;;;;;;6197532;23;20222;-78
2022/07/31 09:54:22;;;;;;;9.93;8.02;;;20.60;99.90;;;;;;6171680;23;20040;-77
2022/07/31 09:56:48;;;;;;;12.48;8.88;;;20.60;99.90;;;;;;6193857;23;20012;-76
2022/07/31 09:59:14;;;;;;;10.68;8.25;;;20.40;99.90;;;;;;6146529;23;20186;-76
2022/07/31 10:01:41;;;;;;;25.10;9.18;;;20.50;99.90;;;;;;6170332;23;20022;-79
2022/07/31 10:04:09;;;;;;;11.80;9.05;;;20.30;99.90;;;;;;6171519;23;20234;-78
2022/07/31 10:06:36;;;;;;;12.27;8.70;;;20.30;99.90;;;;;;6171529;23;20020;-75
2022/07/31 10:09:03;;;;;;;11.15;8.88;;;20.30;99.90;;;;;;6170967;23;20008;-77
2022/07/31 10:11:31;;;;;;;10.00;8.30;;;20.30;99.90;;;;;;6170032;23;20020;-73
2022/07/31 10:14:01;;;;;;;10.02;7.63;;;20.20;99.90;;;;;;6193583;23;20021;-73
2022/07/31 10:16:30;;;;;;;11.63;9.35;;;20.30;99.90;;;;;;6191296;23;20066;-76
2022/07/31 10:19:00;;;;;;;9.57;8.57;;;20.20;99.90;;;;;;6194183;23;20009;-82
2022/07/31 10:21:36;;;;;;;9.65;8.68;;;20.30;99.90;;;;;;6170267;23;20070;-80
2022/07/31 10:24:03;;;;;;;12.65;9.98;;;20.20;99.90;;;;;;6168312;23;20321;-81
2022/07/31 10:26:29;;;;;;;13.35;11.18;;;20.20;99.90;;;;;;6146961;23;20009;-80
2022/07/31 10:29:02;;;;;;;10.32;8.70;;;20.10;99.90;;;;;;6170803;23;20008;-82
2022/07/31 10:31:30;;;;;;;9.27;8.30;;;20.20;99.90;;;;;;6170366;23;20314;-83
2022/07/31 10:33:57;;;;;;;9.48;8.57;;;20.20;99.90;;;;;;6171762;23;20010;-82
2022/07/31 10:36:27;;;;;;;11.15;10.05;;;20.20;99.90;;;;;;6171790;23;20054;-81
2022/07/31 10:39:04;;;;;;;11.18;10.15;;;20.20;99.90;;;;;;6171738;23;20008;-82
2022/07/31 10:42:19;;;;;;;13.25;10.05;;;20.30;99.90;;;;;;6173749;23;20195;-84
2022/07/31 10:45:06;;;;;;;10.88;9.77;;;20.20;99.90;;;;;;6117735;23;20075;-84
2022/07/31 10:47:32;;;;;;;14.57;13.10;;;20.40;99.90;;;;;;6170259;23;20298;-82
2022/07/31 10:49:57;;;;;;;12.95;10.25;;;20.30;99.90;;;;;;6147259;23;20015;-85
2022/07/31 10:52:34;;;;;;;12.73;11.52;;;20.20;99.90;;;;;;6171835;23;20011;-84
2022/07/31 10:55:00;;;;;;;16.17;11.20;;;20.30;99.90;;;;;;6196054;23;20217;-85
2022/07/31 10:57:45;;;;;;;14.10;12.13;;;20.20;99.90;;;;;;6144715;23;20364;-85
2022/07/31 11:00:17;;;;;;;13.57;12.05;;;20.30;99.90;;;;;;6172757;23;20168;-83
2022/07/31 11:02:43;;;;;;;14.60;11.32;;;20.50;99.90;;;;;;6173373;23;20016;-85
2022/07/31 11:05:10;;;;;;;18.70;14.18;;;20.10;99.90;;;;;;6173144;23;20016;-85
2022/07/31 11:07:36;;;;;;;18.10;14.82;;;20.10;99.90;;;;;;6173831;23;20368;-85
2022/07/31 11:10:12;;;;;;;18.85;14.93;;;20.30;99.90;;;;;;6147308;23;20368;-84
2022/07/31 11:12:38;;;;;;;13.15;11.85;;;20.10;99.90;;;;;;6146804;23;20020;-83
2022/07/31 11:15:19;;;;;;;15.13;13.30;;;20.00;99.90;;;;;;6171903;23;20020;-82
2022/07/31 11:17:45;;;;;;;16.13;12.77;;;20.30;99.90;;;;;;6170828;23;20251;-83
2022/07/31 11:20:24;;;;;;;17.92;14.32;;;20.20;99.90;;;;;;6172311;23;20206;-82
2022/07/31 11:22:57;;;;;;;14.98;13.30;;;20.20;99.90;;;;;;6172387;23;20194;-84
2022/07/31 11:25:24;;;;;;;13.85;12.00;;;20.50;99.90;;;;;;6173394;23;20015;-83
2022/07/31 11:27:50;;;;;;;15.65;13.57;;;20.60;99.90;;;;;;6176333;23;20012;-82
2022/07/31 11:30:16;;;;;;;16.48;14.60;;;20.10;99.90;;;;;;6175771;23;20017;-82
2022/07/31 11:32:52;;;;;;;16.30;13.38;;;20.60;99.90;;;;;;6175313;23;20188;-82
2022/07/31 11:35:29;;;;;;;14.23;12.35;;;20.60;99.90;;;;;;6172223;23;20065;-82
2022/07/31 11:37:57;;;;;;;16.40;13.23;;;20.90;99.90;;;;;;6171952;23;20012;-82
2022/07/31 11:40:23;;;;;;;16.60;13.00;;;20.30;99.90;;;;;;6146684;23;20016;-83
2022/07/31 11:42:49;;;;;;;13.10;11.10;;;20.70;99.90;;;;;;6171554;23;20004;-83
2022/07/31 11:45:16;;;;;;;13.88;10.88;;;20.60;99.90;;;;;;6171555;23;20063;-84
2022/07/31 11:47:46;;;;;;;12.88;10.88;;;20.00;99.90;;;;;;6172183;23;20029;-82
2022/07/31 11:50:12;;;;;;;14.60;12.52;;;20.30;99.90;;;;;;6196780;23;20352;-84
2022/07/31 11:52:42;;;;;;;14.57;12.20;;;20.50;99.90;;;;;;6171393;23;20050;-81
2022/07/31 11:55:13;;;;;;;14.63;12.05;;;20.20;99.90;;;;;;6171276;23;20075;-81
2022/07/31 11:57:41;;;;;;;11.55;10.27;;;20.60;99.90;;;;;;6195264;23;20059;-79
2022/07/31 12:00:13;;;;;;;13.82;11.35;;;20.20;99.90;;;;;;6171097;23;20008;-81
2022/07/31 12:02:44;;;;;;;13.82;11.70;;;19.70;99.90;;;;;;6171260;23;20009;-81
2022/07/31 12:05:12;;;;;;;14.68;11.70;;;20.50;99.90;;;;;;6196656;23;20015;-82
2022/07/31 12:07:39;;;;;;;14.05;12.55;;;19.90;99.90;;;;;;6171004;23;20021;-82
2022/07/31 12:10:11;;;;;;;12.63;10.73;;;19.90;99.90;;;;;;6170438;23;20013;-82
2022/07/31 12:12:38;;;;;;;14.88;13.27;;;20.60;99.90;;;;;;6145870;23;20020;-80
2022/07/31 12:15:19;;;;;;;14.02;12.63;;;20.50;99.90;;;;;;6170995;23;20311;-81
2022/07/31 12:17:59;;;;;;;15.73;13.60;;;19.90;99.90;;;;;;6193888;23;20024;-80
2022/07/31 12:20:25;;;;;;;18.50;16.15;;;20.50;99.90;;;;;;6171098;23;20015;-77
2022/07/31 12:22:58;;;;;;;18.83;15.18;;;20.00;99.90;;;;;;6170839;23;20009;-81
2022/07/31 12:25:32;;;;;;;16.20;14.43;;;20.50;99.90;;;;;;6196781;23;20009;-80
2022/07/31 12:27:57;;;;;;;18.35;14.48;;;20.00;99.90;;;;;;6146791;23;20068;-79
2022/07/31 12:30:23;;;;;;;23.38;16.88;;;20.00;99.90;;;;;;6172997;23;20008;-80
2022/07/31 12:32:51;;;;;;;15.13;13.52;;;20.10;99.90;;;;;;6172750;23;20009;-81
2022/07/31 12:35:17;;;;;;;19.35;17.27;;;20.90;99.90;;;;;;6197721;23;20187;-78
2022/07/31 12:37:48;;;;;;;15.65;13.13;;;20.10;99.90;;;;;;6147207;23;20028;-80
2022/07/31 12:40:22;;;;;;;15.00;13.40;;;20.20;99.90;;;;;;6172811;23;20009;-80
2022/07/31 12:42:48;;;;;;;14.93;13.30;;;20.90;99.90;;;;;;6173029;23;20008;-80
2022/07/31 12:45:14;;;;;;;13.05;11.70;;;20.60;99.90;;;;;;6147559;23;20036;-80
2022/07/31 12:47:39;;;;;;;13.27;11.60;;;21.00;99.90;;;;;;6148124;23;20032;-80